createdAt,value
2022-08-07T00:00:53.391Z,19.00
2022-08-07T00:03:25.734Z,18.53
2022-08-07T00:05:54.217Z,17.90
2022-08-07T00:08:23.491Z,16.50
2022-08-07T00:10:57.555Z,16.73
2022-08-07T00:13:27.201Z,15.70
2022-08-07T00:15:55.987Z,15.90
2022-08-07T00:18:29.206Z,16.00
2022-08-07T00:21:01.811Z,15.52
2022-08-07T00:23:32.516Z,14.77
2022-08-07T00:26:10.856Z,14.43
2022-08-07T00:28:56.626Z,13.63
2022-08-07T00:31:37.466Z,13.77
2022-08-07T00:34:10.555Z,13.63
2022-08-07T00:36:42.968Z,13.77
2022-08-07T00:39:16.680Z,11.63
2022-08-07T00:42:01.936Z,11.80
2022-08-07T00:44:33.611Z,11.15
2022-08-07T00:47:02.279Z,11.05
2022-08-07T00:50:21.168Z,10.35
2022-08-07T00:52:20.039Z,10.48
2022-08-07T00:54:53.431Z,9.43
2022-08-07T00:57:25.747Z,9.13
2022-08-07T00:59:54.782Z,8.70
2022-08-07T01:02:27.934Z,8.35
2022-08-07T01:04:58.622Z,7.90
2022-08-07T01:07:29.328Z,7.50
2022-08-07T01:10:05.958Z,7.93
2022-08-07T01:12:53.250Z,8.02
2022-08-07T01:15:35.918Z,8.20
2022-08-07T01:18:17.572Z,8.35
2022-08-07T01:20:59.322Z,7.88
2022-08-07T01:23:36.819Z,7.75
2022-08-07T01:26:11.858Z,8.13
2022-08-07T01:28:41.339Z,7.70
2022-08-07T01:31:17.863Z,8.55
2022-08-07T01:33:55.858Z,7.45
2022-08-07T01:36:33.448Z,7.40
2022-08-07T01:39:09.477Z,7.75
2022-08-07T01:41:40.833Z,7.68
2022-08-07T01:44:27.643Z,7.05
2022-08-07T01:46:56.046Z,7.05
2022-08-07T01:49:24.600Z,7.43
2022-08-07T01:52:03.311Z,8.77
2022-08-07T01:54:37.580Z,8.20
2022-08-07T01:57:08.680Z,8.02
2022-08-07T01:59:53.530Z,7.88
2022-08-07T02:03:11.401Z,8.10
2022-08-07T02:05:48.049Z,8.18
2022-08-07T02:08:10.882Z,7.85
2022-08-07T02:10:55.290Z,7.55
2022-08-07T02:13:27.640Z,8.00
2022-08-07T02:16:14.520Z,8.20
2022-08-07T02:18:46.954Z,7.90
2022-08-07T02:21:16.662Z,7.60
2022-08-07T02:23:46.130Z,8.05
2022-08-07T02:26:32.951Z,7.93
2022-08-07T02:29:03.949Z,8.02
2022-08-07T02:31:32.925Z,7.82
2022-08-07T02:34:03.707Z,7.43
2022-08-07T02:36:41.311Z,7.43
2022-08-07T02:39:17.055Z,7.55
2022-08-07T02:42:00.065Z,7.43
2022-08-07T02:44:34.600Z,7.50
2022-08-07T02:47:05.079Z,7.68
2022-08-07T02:49:57.529Z,7.50
2022-08-07T02:52:32.304Z,8.02
2022-08-07T02:55:04.508Z,7.78
2022-08-07T02:57:46.732Z,7.95
2022-08-07T03:00:16.709Z,7.88
2022-08-07T03:02:54.382Z,7.45
2022-08-07T03:05:24.626Z,8.25
2022-08-07T03:08:07.321Z,8.35
2022-08-07T03:10:40.972Z,8.32
2022-08-07T03:13:19.358Z,8.93
2022-08-07T03:15:56.163Z,8.80
2022-08-07T03:18:34.925Z,9.32
2022-08-07T03:21:08.588Z,8.70
2022-08-07T03:24:19.835Z,9.30
2022-08-07T03:26:31.881Z,9.75
2022-08-07T03:29:02.659Z,8.95
2022-08-07T03:31:42.648Z,9.23
2022-08-07T03:34:18.712Z,9.02
2022-08-07T03:36:52.815Z,9.10
2022-08-07T03:39:46.437Z,8.50
2022-08-07T03:42:11.072Z,8.70
2022-08-07T03:44:42.494Z,7.22
2022-08-07T03:47:15.992Z,7.03
2022-08-07T03:49:47.643Z,7.07
2022-08-07T03:52:26.643Z,6.85
2022-08-07T03:54:57.379Z,5.72
2022-08-07T03:58:32.612Z,5.70
2022-08-07T04:00:30.169Z,5.40
2022-08-07T04:03:04.385Z,5.40
2022-08-07T04:05:40.734Z,5.45
2022-08-07T04:08:12.363Z,5.18
2022-08-07T04:10:42.408Z,4.80
2022-08-07T04:13:15.337Z,4.50
2022-08-07T04:15:45.914Z,4.30
2022-08-07T04:18:58.033Z,4.18
2022-08-07T04:21:07.243Z,4.13
2022-08-07T04:23:43.984Z,3.78
2022-08-07T04:26:25.092Z,3.60
2022-08-07T04:28:57.012Z,3.60
2022-08-07T04:31:39.213Z,3.25
2022-08-07T04:34:23.963Z,2.80
2022-08-07T04:36:55.697Z,2.70
2022-08-07T04:39:26.260Z,2.50
2022-08-07T04:41:54.898Z,2.78
2022-08-07T04:44:23.426Z,2.72
2022-08-07T04:47:07.885Z,2.80
2022-08-07T04:49:47.481Z,2.40
2022-08-07T04:52:33.406Z,2.80
2022-08-07T04:55:14.810Z,2.60
2022-08-07T04:58:15.001Z,2.30
2022-08-07T05:00:42.439Z,1.98
2022-08-07T05:04:00.475Z,2.30
2022-08-07T05:06:19.781Z,1.85
2022-08-07T05:09:01.314Z,2.45
2022-08-07T05:11:57.103Z,2.30
2022-08-07T05:14:52.167Z,2.38
2022-08-07T05:17:51.547Z,2.55
2022-08-07T05:20:11.948Z,3.30
2022-08-07T05:22:42.740Z,2.70
2022-08-07T05:25:25.811Z,2.50
2022-08-07T05:28:02.574Z,2.60
2022-08-07T05:30:47.224Z,2.40
2022-08-07T05:33:17.985Z,2.30
2022-08-07T05:35:51.003Z,1.88
2022-08-07T05:38:59.731Z,1.90
2022-08-07T05:41:14.210Z,2.10
2022-08-07T05:44:07.514Z,1.70
2022-08-07T05:46:36.025Z,1.75
2022-08-07T05:49:12.059Z,1.70
2022-08-07T05:51:43.155Z,1.80
2022-08-07T05:54:31.080Z,1.70
2022-08-07T05:57:00.481Z,2.05
2022-08-07T05:59:28.793Z,1.77
2022-08-07T06:02:08.380Z,1.63
2022-08-07T06:07:08.560Z,1.65
2022-08-07T06:10:05.222Z,2.00
2022-08-07T06:12:35.454Z,2.10
2022-08-07T06:15:05.199Z,2.03
2022-08-07T06:17:38.133Z,1.85
2022-08-07T06:20:12.735Z,1.85
2022-08-07T06:23:02.362Z,1.85
2022-08-07T06:25:54.749Z,2.05
2022-08-07T06:28:28.109Z,1.88
2022-08-07T06:30:58.109Z,1.92
2022-08-07T06:33:26.867Z,1.85
2022-08-07T06:36:13.004Z,2.17
2022-08-07T06:38:51.656Z,2.15
2022-08-07T06:44:24.277Z,2.00
2022-08-07T06:46:53.232Z,1.83
2022-08-07T06:49:22.214Z,2.10
2022-08-07T06:51:50.971Z,1.70
2022-08-07T06:55:34.340Z,1.92
2022-08-07T06:57:10.940Z,2.30
2022-08-07T07:00:11.415Z,2.40
2022-08-07T07:02:54.569Z,2.00
2022-08-07T07:06:02.900Z,2.10
2022-08-07T07:08:18.499Z,2.22
2022-08-07T07:10:57.308Z,2.10
2022-08-07T07:13:55.766Z,2.47
2022-08-07T07:16:23.585Z,2.50
2022-08-07T07:19:00.478Z,2.25
2022-08-07T07:22:04.958Z,2.40
2022-08-07T07:24:30.842Z,2.15
2022-08-07T07:27:04.697Z,2.60
2022-08-07T07:29:56.280Z,2.88
2022-08-07T07:32:26.931Z,2.60
2022-08-07T07:34:57.251Z,2.47
2022-08-07T07:40:16.739Z,2.40
2022-08-07T07:42:51.209Z,2.58
2022-08-07T07:46:53.319Z,2.67
2022-08-07T07:48:35.072Z,2.60
2022-08-07T07:51:07.962Z,2.65
2022-08-07T07:53:52.564Z,2.50
2022-08-07T07:56:30.382Z,2.47
2022-08-07T07:59:02.146Z,2.55
2022-08-07T08:02:03.109Z,2.53
2022-08-07T08:04:25.515Z,2.40
2022-08-07T08:06:54.644Z,2.50
2022-08-07T08:09:29.580Z,2.20
2022-08-07T08:12:03.060Z,2.00
2022-08-07T08:14:36.399Z,2.15
2022-08-07T08:17:32.357Z,2.22
2022-08-07T08:20:17.399Z,2.17
2022-08-07T08:23:04.866Z,1.75
2022-08-07T08:25:56.215Z,2.13
2022-08-07T08:28:38.071Z,2.00
2022-08-07T08:31:14.776Z,2.42
2022-08-07T08:33:49.109Z,1.90
2022-08-07T08:36:25.458Z,1.98
2022-08-07T08:39:00.071Z,1.90
2022-08-07T08:41:57.619Z,1.90
2022-08-07T08:44:29.642Z,2.10
2022-08-07T08:47:07.678Z,1.95
2022-08-07T08:49:57.194Z,1.88
2022-08-07T08:52:36.112Z,1.75
2022-08-07T08:55:21.074Z,2.00
2022-08-07T08:58:13.053Z,1.92
2022-08-07T09:00:48.655Z,1.65
2022-08-07T09:03:47.653Z,1.85
2022-08-07T09:06:23.035Z,2.10
2022-08-07T09:08:58.433Z,1.70
2022-08-07T09:11:43.413Z,1.90
2022-08-07T09:14:30.855Z,1.83
2022-08-07T09:17:05.351Z,1.80
2022-08-07T09:19:53.238Z,1.75
2022-08-07T09:24:32.441Z,1.70
2022-08-07T09:25:26.710Z,2.10
2022-08-07T09:28:03.077Z,2.28
2022-08-07T09:30:46.272Z,1.80
2022-08-07T09:33:53.143Z,2.30
2022-08-07T09:36:29.291Z,2.08
2022-08-07T09:39:52.454Z,1.75
2022-08-07T09:42:07.816Z,1.70
2022-08-07T09:47:27.348Z,2.10
2022-08-07T09:50:37.509Z,2.05
2022-08-07T09:53:12.570Z,1.55
2022-08-07T09:56:03.842Z,1.73
2022-08-07T09:58:58.824Z,1.90
2022-08-07T10:01:50.418Z,1.52
2022-08-07T10:04:33.315Z,1.50
2022-08-07T10:07:40.005Z,1.45
2022-08-07T10:10:23.443Z,1.60
2022-08-07T10:13:55.040Z,1.50
2022-08-07T10:16:13.079Z,1.52
2022-08-07T10:19:11.286Z,1.52
2022-08-07T10:22:15.682Z,1.35
2022-08-07T10:24:51.737Z,1.25
2022-08-07T10:27:46.909Z,1.40
2022-08-07T10:30:18.639Z,1.40
2022-08-07T10:33:01.392Z,1.38
2022-08-07T10:35:53.333Z,1.40
2022-08-07T10:38:36.158Z,1.30
2022-08-07T10:41:47.437Z,1.40
2022-08-07T10:44:28.790Z,1.30
2022-08-07T10:47:18.721Z,1.52
2022-08-07T10:50:01.616Z,1.52
2022-08-07T10:52:34.871Z,1.58
2022-08-07T10:55:26.760Z,1.40
2022-08-07T10:58:05.925Z,1.63
2022-08-07T11:00:50.162Z,1.58
2022-08-07T11:03:28.041Z,1.40
2022-08-07T11:06:18.284Z,1.50
2022-08-07T11:08:51.738Z,1.67
2022-08-07T11:11:25.760Z,1.50
2022-08-07T11:14:45.196Z,1.40
2022-08-07T11:16:55.677Z,1.55
2022-08-07T11:19:32.424Z,1.55
2022-08-07T11:22:18.780Z,1.42
2022-08-07T11:25:06.504Z,1.60
2022-08-07T11:28:02.888Z,1.90
2022-08-07T11:30:41.594Z,1.58
2022-08-07T11:33:20.155Z,1.60
2022-08-07T11:36:20.389Z,1.40
2022-08-07T11:39:07.274Z,1.60
2022-08-07T11:42:01.571Z,1.48
2022-08-07T11:44:37.628Z,1.38
2022-08-07T11:47:13.618Z,1.50
2022-08-07T11:50:30.569Z,1.30
2022-08-07T11:53:01.927Z,1.42
2022-08-07T11:56:25.235Z,1.20
2022-08-07T11:58:45.835Z,1.38
2022-08-07T12:01:58.809Z,1.40
2022-08-07T12:04:35.636Z,1.58
2022-08-07T12:07:20.311Z,1.27
2022-08-07T12:09:58.481Z,1.95
2022-08-07T12:12:37.965Z,1.20
2022-08-07T12:15:17.325Z,1.40
2022-08-07T12:18:03.237Z,1.27
2022-08-07T12:20:39.460Z,1.50
2022-08-07T12:24:06.248Z,1.30
2022-08-07T12:26:23.127Z,1.30
2022-08-07T12:31:52.549Z,1.42
2022-08-07T12:34:20.958Z,1.60
2022-08-07T12:36:52.313Z,1.20
2022-08-07T12:39:42.420Z,1.48
2022-08-07T12:42:14.432Z,1.30
2022-08-07T12:44:46.885Z,1.38
2022-08-07T12:47:30.996Z,1.40
2022-08-07T12:50:38.527Z,1.73
2022-08-07T12:52:58.713Z,1.50
2022-08-07T12:55:41.458Z,1.60
2022-08-07T12:58:21.585Z,1.60
2022-08-07T13:01:04.391Z,1.50
2022-08-07T13:03:56.013Z,1.40
2022-08-07T13:06:54.229Z,1.40
2022-08-07T13:10:38.149Z,1.80
2022-08-07T13:12:51.655Z,1.55
2022-08-07T13:15:31.656Z,1.40
2022-08-07T13:18:11.341Z,1.60
2022-08-07T13:21:00.764Z,1.58
2022-08-07T13:24:00.856Z,1.58
2022-08-07T13:26:32.794Z,1.38
2022-08-07T13:29:12.902Z,1.50
2022-08-07T13:34:35.995Z,1.60
2022-08-07T13:37:19.634Z,1.85
2022-08-07T13:40:35.498Z,1.70
2022-08-07T13:42:45.199Z,1.50
2022-08-07T13:46:06.651Z,1.40
2022-08-07T13:51:00.186Z,1.52
2022-08-07T13:53:55.310Z,1.70
2022-08-07T13:56:40.730Z,1.77
2022-08-07T13:59:13.747Z,1.70
2022-08-07T14:01:59.179Z,1.70
2022-08-07T14:04:36.075Z,1.92
2022-08-07T14:07:10.202Z,1.73
2022-08-07T14:10:01.402Z,1.90
2022-08-07T14:12:36.838Z,2.05
2022-08-07T14:15:23.699Z,1.77
2022-08-07T14:18:15.963Z,2.00
2022-08-07T14:20:49.201Z,1.95
2022-08-07T14:23:58.771Z,1.73
2022-08-07T14:26:23.641Z,2.03
2022-08-07T14:29:04.387Z,1.70
2022-08-07T14:31:43.028Z,2.08
2022-08-07T14:34:29.632Z,1.80
2022-08-07T14:36:59.253Z,1.60
2022-08-07T14:40:17.170Z,1.80
2022-08-07T14:42:24.666Z,1.70
2022-08-07T14:44:59.885Z,2.00
2022-08-07T14:47:33.782Z,2.25
2022-08-07T14:50:06.951Z,1.80
2022-08-07T14:52:40.264Z,1.98
2022-08-07T14:55:11.243Z,2.03
2022-08-07T14:57:55.260Z,2.20
2022-08-07T15:00:38.519Z,2.15
2022-08-07T15:03:18.850Z,2.20
2022-08-07T15:05:54.810Z,2.35
2022-08-07T15:08:35.189Z,2.35
2022-08-07T15:11:17.060Z,2.35
2022-08-07T15:14:10.124Z,2.73
2022-08-07T15:16:55.228Z,2.10
2022-08-07T15:20:23.643Z,2.50
2022-08-07T15:25:19.374Z,2.67
2022-08-07T15:28:32.503Z,2.42
2022-08-07T15:30:59.423Z,2.40
2022-08-07T15:36:57.446Z,2.38
2022-08-07T15:39:10.455Z,2.45
2022-08-07T15:42:44.295Z,2.55
2022-08-07T15:47:03.437Z,2.63
2022-08-07T15:50:04.211Z,2.90
2022-08-07T15:52:29.756Z,2.45
2022-08-07T15:55:03.369Z,2.33
2022-08-07T15:57:47.785Z,2.60
2022-08-07T16:00:31.864Z,2.45
2022-08-07T16:03:08.456Z,2.10
2022-08-07T16:05:51.845Z,2.55
2022-08-07T16:08:31.590Z,2.30
2022-08-07T16:11:27.111Z,2.38
2022-08-07T16:14:06.684Z,2.25
2022-08-07T16:16:57.168Z,2.50
2022-08-07T16:20:04.265Z,2.38
2022-08-07T16:22:54.835Z,2.55
2022-08-07T16:25:55.232Z,2.47
2022-08-07T16:30:05.456Z,2.70
2022-08-07T16:31:51.868Z,2.83
2022-08-07T16:34:25.660Z,2.88
2022-08-07T16:38:04.177Z,2.65
2022-08-07T16:40:34.994Z,2.40
2022-08-07T16:43:11.755Z,2.40
2022-08-07T16:46:40.553Z,2.72
2022-08-07T16:50:28.615Z,2.70
2022-08-07T16:52:51.494Z,2.63
2022-08-07T16:55:13.212Z,2.80
2022-08-07T16:58:01.844Z,2.60
2022-08-07T17:00:41.209Z,2.33
2022-08-07T17:03:57.755Z,3.05
2022-08-07T17:06:28.805Z,3.00
2022-08-07T17:09:09.106Z,2.70
2022-08-07T17:12:04.017Z,2.40
2022-08-07T17:14:42.732Z,2.78
2022-08-07T17:17:46.317Z,2.80
2022-08-07T17:20:29.880Z,2.50
2022-08-07T17:23:02.735Z,3.10
2022-08-07T17:25:52.013Z,3.65
2022-08-07T17:28:31.110Z,3.00
2022-08-07T17:31:15.777Z,3.03
2022-08-07T17:34:19.831Z,2.72
2022-08-07T17:36:49.224Z,2.80
2022-08-07T17:39:53.157Z,2.90
2022-08-07T17:42:34.742Z,2.50
2022-08-07T17:45:14.870Z,2.70
2022-08-07T17:47:54.121Z,2.60
2022-08-07T17:50:30.528Z,2.70
2022-08-07T17:53:07.881Z,2.42
2022-08-07T17:56:06.689Z,2.70
2022-08-07T17:58:46.516Z,2.80
2022-08-07T18:01:22.072Z,2.70
2022-08-07T18:04:16.054Z,3.00
2022-08-07T18:07:19.278Z,2.60
2022-08-07T18:10:05.202Z,2.50
2022-08-07T18:12:51.890Z,3.00
2022-08-07T18:15:24.023Z,2.58
2022-08-07T18:18:45.311Z,2.80
2022-08-07T18:21:07.067Z,2.63
2022-08-07T18:23:57.213Z,2.90
2022-08-07T18:26:54.234Z,3.00
2022-08-07T18:30:06.228Z,2.72
2022-08-07T18:32:25.564Z,2.83
2022-08-07T18:35:12.784Z,2.90
2022-08-07T18:38:55.245Z,2.92
2022-08-07T18:41:08.105Z,2.88
2022-08-07T18:43:49.886Z,2.95
2022-08-07T18:46:26.746Z,2.90
2022-08-07T18:50:32.778Z,2.60
2022-08-07T18:52:25.399Z,3.25
2022-08-07T18:54:50.995Z,3.10
2022-08-07T18:57:40.342Z,3.13
2022-08-07T19:00:33.547Z,3.28
2022-08-07T19:03:11.891Z,2.90
2022-08-07T19:06:04.103Z,2.85
2022-08-07T19:08:42.886Z,3.45
2022-08-07T19:11:36.136Z,3.17
2022-08-07T19:14:17.256Z,3.13
2022-08-07T19:17:07.005Z,3.08
2022-08-07T19:19:46.095Z,3.75
2022-08-07T19:22:30.938Z,3.40
2022-08-07T19:25:05.612Z,4.07
2022-08-07T19:28:56.894Z,7.72
2022-08-07T19:31:04.380Z,7.47
2022-08-07T19:33:17.310Z,7.70
2022-08-07T19:35:54.654Z,5.80
2022-08-07T19:38:23.325Z,5.70
2022-08-07T19:40:59.092Z,4.80
2022-08-07T19:43:43.634Z,4.63
2022-08-07T19:46:26.456Z,4.75
2022-08-07T19:49:04.244Z,4.15
2022-08-07T19:51:51.853Z,4.63
2022-08-07T19:54:34.445Z,4.15
2022-08-07T19:58:00.479Z,4.22
2022-08-07T20:00:10.030Z,4.10
2022-08-07T20:02:51.642Z,3.88
2022-08-07T20:05:25.263Z,4.18
2022-08-07T20:08:00.762Z,4.40
2022-08-07T20:10:36.282Z,4.22
2022-08-07T20:13:26.793Z,4.32
2022-08-07T20:15:57.935Z,4.35
2022-08-07T20:18:32.697Z,4.25
2022-08-07T20:21:21.363Z,3.95
2022-08-07T20:23:54.914Z,4.75
2022-08-07T20:26:29.623Z,4.63
2022-08-07T20:29:46.659Z,5.00
2022-08-07T20:32:00.692Z,4.60
2022-08-07T20:34:49.384Z,4.72
2022-08-07T20:37:24.742Z,4.20
2022-08-07T20:40:03.884Z,4.38
2022-08-07T20:45:32.817Z,4.35
2022-08-07T20:50:27.987Z,4.22
2022-08-07T20:52:58.051Z,4.20
2022-08-07T20:55:26.595Z,4.53
2022-08-07T20:58:03.330Z,4.97
2022-08-07T21:00:34.035Z,5.38
2022-08-07T21:03:03.110Z,5.53
2022-08-07T21:05:52.457Z,5.75
2022-08-07T21:08:37.232Z,5.68
2022-08-07T21:11:12.215Z,6.00
2022-08-07T21:14:16.304Z,5.95
2022-08-07T21:16:46.962Z,5.70
2022-08-07T21:19:32.528Z,5.40
2022-08-07T21:22:16.294Z,5.53
2022-08-07T21:24:56.873Z,5.30
2022-08-07T21:27:40.019Z,4.72
2022-08-07T21:30:18.853Z,5.00
2022-08-07T21:32:54.809Z,5.15
2022-08-07T21:35:34.658Z,4.70
2022-08-07T21:38:21.536Z,4.93
2022-08-07T21:41:01.429Z,5.10
2022-08-07T21:43:55.666Z,5.00
2022-08-07T21:46:31.688Z,5.07
2022-08-07T21:49:14.459Z,5.20
2022-08-07T21:51:54.767Z,5.43
2022-08-07T21:54:30.960Z,5.37
2022-08-07T21:57:16.163Z,5.72
2022-08-07T22:00:08.718Z,5.10
2022-08-07T22:02:42.887Z,5.03
2022-08-07T22:05:44.619Z,5.28
2022-08-07T22:08:02.937Z,4.65
2022-08-07T22:10:35.401Z,5.10
2022-08-07T22:13:09.212Z,5.60
2022-08-07T22:16:44.520Z,5.30
2022-08-07T22:18:36.986Z,4.97
2022-08-07T22:21:12.530Z,5.40
2022-08-07T22:23:45.262Z,6.13
2022-08-07T22:26:18.432Z,5.55
2022-08-07T22:28:53.120Z,5.68
2022-08-07T22:31:45.724Z,5.88
2022-08-07T22:34:29.172Z,6.10
2022-08-07T22:37:12.569Z,5.28
2022-08-07T22:39:53.581Z,5.60
2022-08-07T22:42:26.006Z,5.50
2022-08-07T22:44:59.706Z,5.95
2022-08-07T22:47:56.897Z,5.68
2022-08-07T22:51:16.564Z,5.50
2022-08-07T22:54:07.001Z,5.90
2022-08-07T22:56:48.038Z,5.40
2022-08-07T22:59:42.470Z,5.65
2022-08-07T23:02:27.306Z,6.55
2022-08-07T23:06:07.588Z,6.45
2022-08-07T23:08:53.055Z,6.40
2022-08-07T23:11:35.285Z,6.40
2022-08-07T23:14:24.177Z,6.32
2022-08-07T23:17:15.923Z,6.30
2022-08-07T23:20:40.487Z,6.03
2022-08-07T23:24:07.068Z,6.40
2022-08-07T23:26:23.528Z,5.95
2022-08-07T23:29:03.823Z,5.28
2022-08-07T23:34:18.929Z,5.30
2022-08-07T23:34:52.767Z,5.57
2022-08-07T23:38:00.904Z,5.40
2022-08-07T23:40:37.404Z,5.57
2022-08-07T23:43:25.533Z,6.20
2022-08-07T23:46:20.093Z,5.70
2022-08-07T23:49:17.111Z,5.85
2022-08-07T23:53:06.641Z,6.20
2022-08-07T23:54:46.103Z,5.93
2022-08-07T23:57:22.378Z,6.10
